Time;durP1;ratioP1;P1;durP2;ratioP2;P2;SDS_P1;SDS_P2;PMS_P1;PMS_P2;Temp;Humidity;BMP_temperature;BMP_pressure;BME280_temperature;BME280_humidity;BME280_pressure;Samples;Min_cycle;Max_cycle;Signal;HPM_P1;HPM_P2
2022/01/18 00:00:14;;;;;;;4.97;1.35;;;-0.50;82.90;;;-2.00;78.92;96293.59;4092100;34;20255;-88
2022/01/18 00:02:51;;;;;;;5.75;1.17;;;-0.50;83.00;;;-2.00;79.33;96301.66;4093115;34;20310;-87
2022/01/18 00:05:20;;;;;;;4.78;1.10;;;-0.50;83.10;;;-1.99;79.01;96297.13;4092716;34;20023;-87
2022/01/18 00:07:52;;;;;;;2.90;1.10;;;-0.50;83.20;;;-2.02;78.88;96309.09;4115679;33;20023;-86
2022/01/18 00:10:26;;;;;;;4.07;1.33;;;-0.50;83.20;;;-2.00;78.85;96320.44;4092373;34;20326;-88
2022/01/18 00:13:09;;;;;;;4.03;1.30;;;-0.50;83.10;;;-2.01;78.95;96324.16;4116009;34;20301;-87
2022/01/18 00:15:43;;;;;;;3.05;1.10;;;-0.50;83.10;;;-2.03;78.99;96321.66;4138324;33;20015;-88
2022/01/18 00:18:18;;;;;;;2.72;0.80;;;-0.50;83.10;;;-2.00;79.13;96331.16;4092045;34;20284;-87
2022/01/18 00:21:10;;;;;;;2.80;0.90;;;-0.50;83.10;;;-2.03;78.93;96336.94;4115354;34;20045;-87
2022/01/18 00:23:47;;;;;;;6.75;1.25;;;-0.50;83.10;;;-2.00;79.24;96366.03;4116749;34;20015;-87
2022/01/18 00:26:17;;;;;;;3.42;1.20;;;-0.60;83.00;;;-2.04;79.10;96351.34;4092538;34;20008;-87
2022/01/18 00:28:52;;;;;;;3.33;1.27;;;-0.50;83.20;;;-2.00;79.48;96368.72;4093009;34;20309;-87
2022/01/18 00:31:48;;;;;;;2.60;0.93;;;-0.50;83.30;;;-1.99;79.00;96391.03;4115146;33;20372;-87
2022/01/18 00:34:24;;;;;;;2.72;1.00;;;-0.50;83.30;;;-1.99;79.36;96407.94;4093211;34;20334;-87
2022/01/18 00:37:01;;;;;;;;;;;-0.50;83.30;;;-2.00;79.43;96408.97;4117641;34;20004;-87
2022/01/18 00:39:33;;;;;;;2.75;1.00;;;-0.50;83.40;;;-2.00;79.35;96411.66;4095617;34;20536;-87
2022/01/18 00:42:04;;;;;;;3.17;1.00;;;-0.50;83.50;;;-2.02;79.00;96411.03;4094035;34;20034;-87
2022/01/18 00:44:33;;;;;;;3.63;1.13;;;-0.50;83.40;;;-2.02;79.02;96409.16;4121388;34;20280;-87
2022/01/18 00:47:07;;;;;;;2.70;0.70;;;-0.50;83.20;;;-2.00;79.24;96417.00;4116373;34;20714;-87
2022/01/18 00:49:41;;;;;;;6.63;1.15;;;-0.50;83.30;;;-1.99;78.92;96413.31;4113455;34;20019;-87
2022/01/18 00:52:10;;;;;;;2.92;1.10;;;-0.50;83.40;;;-2.03;79.55;96417.41;4093237;34;20301;-86
2022/01/18 00:54:44;;;;;;;2.25;0.95;;;-0.50;83.40;;;-2.01;79.34;96426.09;4113347;34;20292;-87
2022/01/18 00:57:15;;;;;;;5.05;0.93;;;-0.50;83.30;;;-2.00;79.04;96427.75;4113189;34;20312;-86
2022/01/18 00:59:47;;;;;;;3.38;1.35;;;-0.50;83.40;;;-2.00;79.31;96433.09;4114520;34;20310;-87
2022/01/18 01:02:21;;;;;;;4.03;1.38;;;-0.50;83.30;;;-2.01;78.84;96434.97;4091681;34;20023;-87
2022/01/18 01:04:51;;;;;;;3.50;1.02;;;-0.50;83.20;;;-2.02;79.00;96452.09;4116397;34;20289;-87
2022/01/18 01:07:22;;;;;;;3.53;1.00;;;-0.60;83.10;;;-2.01;79.07;96452.94;4122149;33;20003;-88
2022/01/18 01:09:55;;;;;;;2.42;0.80;;;-0.50;83.20;;;-2.03;79.43;96460.31;4141443;33;20027;-87
2022/01/18 01:12:29;;;;;;;2.75;0.80;;;-0.60;83.00;;;-2.02;79.00;96456.63;4140575;33;19995;-87
2022/01/18 01:15:05;;;;;;;2.33;0.88;;;-0.50;83.30;;;-2.01;79.19;96459.13;4142079;33;20319;-87
2022/01/18 01:17:44;;;;;;;3.05;1.35;;;-0.50;83.30;;;-2.01;79.57;96474.41;4118363;33;20327;-87
2022/01/18 01:34:40;;;;;;;2.08;1.10;;;-0.60;83.20;;;-2.02;79.47;96508.41;4111411;33;20287;-86
2022/01/18 01:41:45;;;;;;;2.40;1.23;;;-0.60;83.20;;;-2.02;79.35;96521.84;4115779;33;20015;-87
2022/01/18 01:43:12;;;;;;;3.42;1.10;;;-0.60;83.40;;;-2.01;79.25;96511.94;4110468;33;20014;-87
2022/01/18 01:45:44;;;;;;;1.75;1.00;;;-0.60;83.30;;;-2.01;79.66;96520.00;4134056;33;20233;-86
2022/01/18 01:48:13;;;;;;;2.85;0.80;;;-0.60;83.30;;;-2.01;79.44;96520.81;4112807;33;20221;-87
2022/01/18 01:50:47;;;;;;;2.20;0.80;;;-0.60;83.30;;;-2.03;79.59;96509.44;4112881;33;20215;-87
2022/01/18 01:53:25;;;;;;;3.80;1.08;;;-0.50;83.50;;;-2.02;79.36;96521.00;4139461;33;20022;-87
2022/01/18 01:55:54;;;;;;;2.58;0.57;;;-0.50;83.60;;;-2.01;78.99;96522.69;4141188;33;20249;-87
2022/01/18 01:58:28;;;;;;;5.30;0.85;;;-0.50;83.60;;;-2.01;79.32;96522.69;4119453;33;20218;-87
2022/01/18 02:00:59;;;;;;;3.35;0.93;;;-0.60;83.30;;;-2.01;79.41;96528.06;4143595;33;20359;-87
2022/01/18 02:03:28;;;;;;;2.58;0.60;;;-0.60;83.30;;;-2.01;79.25;96538.78;4123346;33;20038;-87
2022/01/18 02:05:57;;;;;;;2.95;0.88;;;-0.60;83.40;;;-2.01;79.42;96546.84;4123789;33;20034;-87
2022/01/18 02:08:30;;;;;;;2.22;0.73;;;-0.60;83.40;;;-2.03;79.21;96546.16;4147369;33;20314;-87
2022/01/18 02:11:02;;;;;;;2.80;0.90;;;-0.60;83.40;;;-2.00;79.26;96556.50;4123317;33;20551;-87
2022/01/18 02:13:35;;;;;;;3.42;0.95;;;-0.60;83.30;;;-2.01;79.26;96560.25;4122338;33;20019;-87
2022/01/18 02:16:16;;;;;;;1.85;0.70;;;-0.60;83.30;;;-2.03;79.51;96567.63;4145189;33;20302;-87
2022/01/18 02:21:48;;;;;;;2.72;0.73;;;-0.50;83.40;;;-2.00;79.54;96572.63;4122071;33;20639;-87
2022/01/18 02:24:17;;;;;;;3.33;1.17;;;-0.50;83.50;;;-2.02;79.56;96563.94;4144925;33;20299;-88
2022/01/18 02:26:46;;;;;;;3.38;0.93;;;-0.60;83.20;;;-2.01;79.11;96581.72;4122487;33;20311;-87
2022/01/18 02:29:15;;;;;;;2.60;1.02;;;-0.60;83.30;;;-2.00;79.29;96596.75;4144963;33;20648;-86
2022/01/18 02:31:44;;;;;;;3.10;1.00;;;-0.50;83.30;;;-2.01;79.24;96597.81;4122298;33;20298;-88
2022/01/18 02:34:20;;;;;;;2.28;0.85;;;-0.60;83.10;;;-2.01;79.38;96600.47;4145633;33;20747;-85
2022/01/18 02:36:54;;;;;;;;;;;-0.60;83.20;;;-2.03;79.08;96597.16;4146665;33;20709;-85
2022/01/18 02:39:24;;;;;;;3.58;1.23;;;-0.50;83.30;;;-2.01;79.43;96608.53;4139954;33;20201;-86
2022/01/18 02:41:55;;;;;;;4.47;1.30;;;-0.60;83.20;;;-2.01;79.26;96620.09;4115344;34;20766;-87
2022/01/18 02:44:28;;;;;;;3.45;0.80;;;-0.50;83.30;;;-2.01;79.43;96624.63;4106403;33;20606;-86
2022/01/18 02:46:58;;;;;;;3.45;0.90;;;-0.60;83.20;;;-2.01;79.02;96628.13;4120369;33;20015;-86
2022/01/18 02:49:27;;;;;;;3.95;1.30;;;-0.60;83.20;;;-2.01;79.44;96635.38;4122448;33;20299;-87
2022/01/18 02:52:03;;;;;;;1.75;0.80;;;-0.60;83.20;;;-2.02;79.52;96629.16;4145594;33;20278;-87
2022/01/18 02:54:32;;;;;;;3.75;1.23;;;-0.60;83.20;;;-2.01;79.08;96628.13;4145652;33;20282;-86
2022/01/18 02:57:11;;;;;;;2.22;0.80;;;-0.60;83.00;;;-2.02;78.91;96633.69;4122202;33;20317;-87
2022/01/18 02:59:47;;;;;;;4.50;1.05;;;-0.60;82.90;;;-2.01;79.12;96635.38;4115080;34;20019;-86
2022/01/18 03:05:10;;;;;;;3.20;0.90;;;-0.60;83.10;;;-2.02;79.06;96639.06;4132434;33;20319;-87
2022/01/18 03:07:40;;;;;;;3.35;1.17;;;-0.60;83.10;;;-2.03;79.14;96632.03;4141565;33;20018;-87
2022/01/18 03:10:23;;;;;;;3.35;0.70;;;-0.60;83.20;;;-2.03;79.13;96648.94;4119123;33;20288;-86
2022/01/18 03:12:56;;;;;;;2.15;0.85;;;-0.60;83.10;;;-2.04;78.99;96647.25;4141580;33;20041;-87
2022/01/18 03:16:40;;;;;;;3.35;1.10;;;-0.60;83.20;;;-2.03;79.32;96651.63;4142107;33;20026;-86
2022/01/18 03:19:20;;;;;;;3.15;1.02;;;-0.60;83.10;;;-2.02;79.17;96663.19;4118269;33;20029;-87
2022/01/18 03:21:59;;;;;;;4.25;1.20;;;-0.60;83.10;;;-2.02;nan;96660.53;4141266;33;20018;-87
2022/01/18 03:24:45;;;;;;;3.35;0.95;;;-0.60;83.10;;;-2.03;79.17;96664.22;4135508;33;20283;-87
2022/01/18 03:30:20;;;;;;;2.92;0.88;;;-0.60;83.20;;;-2.03;79.62;96685.69;4127644;33;20352;-88
2022/01/18 03:33:06;;;;;;;2.15;0.85;;;-0.60;83.10;;;-2.03;78.90;96683.00;4120289;33;20242;-86
2022/01/18 03:35:53;;;;;;;3.90;1.60;;;-0.60;83.20;;;-2.02;78.95;96681.97;4120863;33;20015;-86
2022/01/18 03:38:29;;;;;;;3.75;1.00;;;-0.60;83.20;;;-2.02;79.74;96687.34;4144467;33;20294;-86
2022/01/18 03:41:01;;;;;;;;;;;-0.60;83.30;;;-2.02;79.46;96698.91;4116879;34;20315;-87
2022/01/18 03:43:41;;;;;;;3.00;1.02;;;-0.60;83.20;;;-2.04;79.22;96678.63;4094395;34;20203;-86
2022/01/18 03:51:46;;;;;;;3.50;1.08;;;-0.60;83.20;;;-2.04;79.23;96697.41;4144461;33;20290;-87
2022/01/18 03:54:31;;;;;;;3.65;1.10;;;-0.60;83.20;;;-2.03;79.13;96709.81;4142556;33;20010;-86
2022/01/18 03:57:13;;;;;;;2.58;1.00;;;-0.60;83.20;;;-2.03;79.55;96699.09;4090840;34;20026;-86
2022/01/18 03:59:57;;;;;;;4.20;1.02;;;-0.60;83.20;;;-2.03;79.41;96701.78;4090410;34;20023;-87
2022/01/18 04:02:59;;;;;;;2.78;1.15;;;-0.60;83.20;;;-2.03;79.31;96699.09;4113125;34;20598;-87
2022/01/18 04:06:03;;;;;;;3.35;1.05;;;-0.60;83.20;;;-2.03;78.93;96713.31;4113222;34;20284;-87
2022/01/18 04:08:50;;;;;;;2.55;0.90;;;-0.60;83.20;;;-2.04;78.94;96722.38;4089608;34;20295;-87
2022/01/18 04:11:27;;;;;;;3.45;0.93;;;-0.60;83.10;;;-2.03;79.19;96716.00;4111976;33;20223;-87
2022/01/18 04:14:03;;;;;;;4.30;1.30;;;-0.60;83.10;;;-2.03;79.05;96721.38;4112390;34;20015;-87
2022/01/18 04:16:44;;;;;;;;;;;-0.60;83.10;;;-2.03;79.43;96715.19;4090178;34;20026;-87
2022/01/18 04:25:48;;;;;;;4.22;1.05;;;-0.60;83.20;;;-2.04;79.13;96717.03;4089473;34;20271;-87
2022/01/18 04:28:15;;;;;;;;;;;-0.60;83.30;;;-2.04;79.41;96724.25;4087936;34;20283;-87
2022/01/18 04:30:47;;;;;;;3.43;1.30;;;-0.60;83.30;;;-2.03;79.11;96733.97;4095158;33;20186;-86
2022/01/18 04:33:16;;;;;;;4.00;1.35;;;-0.60;83.30;;;-2.04;79.43;96743.84;4108140;33;20485;-87
2022/01/18 04:35:45;;;;;;;3.45;1.25;;;-0.60;83.30;;;-2.04;79.48;96748.38;4130917;33;20003;-87
2022/01/18 04:38:19;;;;;;;3.88;1.23;;;-0.60;83.30;;;-2.03;78.92;96750.06;4103609;33;20022;-87
2022/01/18 04:40:48;;;;;;;4.35;1.30;;;-0.60;83.30;;;-2.03;79.17;96750.06;4125791;33;20368;-87
2022/01/18 04:43:25;;;;;;;4.68;1.67;;;-0.60;83.30;;;-2.03;79.45;96755.44;4126482;33;20697;-87
2022/01/18 04:48:41;;;;;;;3.50;1.25;;;-0.60;83.20;;;-2.03;79.09;96758.09;4129133;33;20320;-87
2022/01/18 04:51:13;;;;;;;3.47;1.02;;;-0.60;83.40;;;-2.04;79.45;96761.81;4105685;33;20022;-87
2022/01/18 04:53:49;;;;;;;4.43;1.27;;;-0.60;83.30;;;-2.03;79.18;96771.53;4105724;33;20277;-87
2022/01/18 04:56:27;;;;;;;4.32;1.35;;;-0.60;83.20;;;-2.07;79.45;96768.38;4129074;33;20306;-87
2022/01/18 04:58:55;;;;;;;3.28;1.20;;;-0.60;83.40;;;-2.04;79.43;96786.78;4105611;33;20291;-87
2022/01/18 05:01:27;;;;;;;4.28;1.38;;;-0.60;83.30;;;-2.03;78.92;96782.25;4105547;33;20292;-87
2022/01/18 05:03:56;;;;;;;6.88;1.85;;;-0.60;83.20;;;-2.03;79.36;96787.63;4128704;33;20281;-86
2022/01/18 05:06:25;;;;;;;4.45;1.38;;;-0.60;83.30;;;-2.04;79.45;96786.78;4106095;33;20538;-86
2022/01/18 05:08:54;;;;;;;4.70;1.30;;;-0.60;83.30;;;-2.03;79.25;96790.31;4128860;33;20282;-87
2022/01/18 05:11:55;;;;;;;4.38;1.42;;;-0.60;83.20;;;-2.04;79.34;96794.00;4106369;33;20293;-86
2022/01/18 05:14:30;;;;;;;4.85;1.27;;;-0.60;83.30;;;-2.03;79.44;96804.53;4105488;33;20021;-87
2022/01/18 05:17:11;;;;;;;4.28;1.45;;;-0.60;83.40;;;-2.04;79.58;96802.88;4107074;33;20285;-87
2022/01/18 05:19:48;;;;;;;4.43;1.52;;;-0.60;83.40;;;-2.05;79.48;96806.56;4109127;33;20539;-86
2022/01/18 05:27:53;;;;;;;5.82;1.60;;;-0.60;83.20;;;-2.04;79.42;96807.41;4306912;28;20838;-81
2022/01/18 05:30:23;;;;;;;2.83;1.30;;;-0.60;83.30;;;-2.03;79.54;96822.50;4081427;33;20287;-81
2022/01/18 05:32:53;;;;;;;3.63;1.02;;;-0.60;83.30;;;-2.04;79.19;96812.78;4089662;33;20279;-82
2022/01/18 05:35:23;;;;;;;4.78;1.20;;;-0.60;83.40;;;-2.06;79.32;96814.78;4117339;33;20014;-82
2022/01/18 05:37:52;;;;;;;4.03;1.02;;;-0.60;83.40;;;-2.04;79.42;96818.13;4093749;33;20030;-82
2022/01/18 05:40:21;;;;;;;3.45;0.95;;;-0.60;83.40;;;-2.05;79.51;96827.19;4123257;28;20026;-86
2022/01/18 05:42:50;;;;;;;3.95;1.30;;;-0.60;83.40;;;-2.06;79.41;96825.53;4117904;33;20351;-85
2022/01/18 05:45:19;;;;;;;6.03;1.67;;;-0.60;83.40;;;-2.05;79.01;96829.88;4117542;33;20022;-86
2022/01/18 05:47:48;;;;;;;3.33;0.90;;;-0.60;83.40;;;-2.03;79.77;96841.28;4094522;33;20015;-86
2022/01/18 05:50:19;;;;;;;5.00;1.83;;;-0.60;83.40;;;-2.05;79.62;96844.13;4082984;34;20007;-86
2022/01/18 05:52:47;;;;;;;5.05;1.70;;;-0.60;83.50;;;-2.04;79.50;96850.34;4067932;34;20305;-85
2022/01/18 05:55:16;;;;;;;3.50;1.10;;;-0.60;83.50;;;-2.04;79.75;96850.34;4067738;34;20280;-86
2022/01/18 05:57:45;;;;;;;2.92;1.35;;;-0.60;83.50;;;-2.06;79.54;96847.00;4067184;34;20278;-86
2022/01/18 06:00:22;;;;;;;5.05;1.23;;;-0.60;83.50;;;-2.04;79.50;96855.69;4067680;34;20356;-86
2022/01/18 06:03:01;;;;;;;3.75;1.30;;;-0.60;83.40;;;-2.05;79.41;96851.34;4090678;34;20003;-86
2022/01/18 06:08:18;;;;;;;3.97;1.17;;;-0.60;83.30;;;-2.05;79.53;96856.72;4067590;34;20634;-86
2022/01/18 06:10:46;;;;;;;4.63;1.50;;;-0.60;83.40;;;-2.04;79.55;96858.38;4067709;34;20291;-86
2022/01/18 06:13:15;;;;;;;3.17;1.25;;;-0.60;83.50;;;-2.07;79.53;96854.22;4089238;34;20272;-86
2022/01/18 06:15:44;;;;;;;3.47;1.50;;;-0.60;83.40;;;-2.04;79.24;96866.44;4067738;34;20708;-85
2022/01/18 06:18:14;;;;;;;4.43;2.05;;;-0.60;83.40;;;-2.02;79.30;96877.84;4090156;33;20311;-86
2022/01/18 06:20:45;;;;;;;6.60;1.50;;;-0.60;83.40;;;-2.03;79.02;96876.16;4067322;34;20330;-86
2022/01/18 06:23:14;;;;;;;3.85;1.33;;;-0.60;83.30;;;-2.02;79.55;96875.16;4067594;34;20163;-86
2022/01/18 06:25:43;;;;;;;3.88;1.33;;;-0.60;83.50;;;-2.06;79.57;96874.63;4116223;34;20294;-86
2022/01/18 06:28:12;;;;;;;4.55;1.40;;;-0.60;83.40;;;-2.03;79.42;96878.84;4093444;34;20224;-86
2022/01/18 06:30:41;;;;;;;3.78;1.40;;;-0.60;83.50;;;-2.02;79.17;96881.34;4070392;34;20034;-86
2022/01/18 06:33:09;;;;;;;5.45;1.52;;;-0.60;83.40;;;-2.04;79.02;96877.16;4092285;34;20295;-87
2022/01/18 06:35:38;;;;;;;4.55;1.20;;;-0.60;83.30;;;-2.03;79.76;96884.22;4069725;34;20303;-86
2022/01/18 06:38:10;;;;;;;4.03;1.38;;;-0.60;83.40;;;-2.05;79.13;96881.69;4069891;34;20302;-86
2022/01/18 06:40:39;;;;;;;3.78;1.48;;;-0.60;83.40;;;-2.03;79.66;96885.03;4091442;34;20326;-86
2022/01/18 06:43:08;;;;;;;4.50;1.17;;;-0.60;83.40;;;-2.04;79.53;96887.91;4091662;34;20024;-86
2022/01/18 06:45:37;;;;;;;3.53;0.98;;;-0.60;83.40;;;-2.02;79.47;96883.19;4114302;34;20258;-86
2022/01/18 06:48:07;;;;;;;3.22;1.10;;;-0.60;83.40;;;-2.03;79.33;96878.84;4089717;34;20027;-86
2022/01/18 06:50:36;;;;;;;3.33;0.98;;;-0.60;83.40;;;-2.03;79.72;96876.16;4090081;34;20336;-87
2022/01/18 06:53:05;;;;;;;2.95;1.45;;;-0.60;84.20;;;-2.05;79.41;96891.59;4089722;34;20204;-87
2022/01/18 06:55:35;;;;;;;4.65;1.10;;;-0.60;83.40;;;-2.06;79.41;96880.00;4089689;34;20497;-86
2022/01/18 06:58:04;;;;;;;4.72;1.02;;;-0.60;83.40;;;-2.03;79.12;96890.38;4089112;34;20291;-86
2022/01/18 07:00:33;;;;;;;3.45;1.10;;;-0.50;83.50;;;-2.03;79.33;96890.38;4067334;34;20303;-86
2022/01/18 07:03:02;;;;;;;4.30;1.58;;;-0.60;83.40;;;-2.04;79.40;96894.09;4089708;34;20019;-86
2022/01/18 07:05:32;;;;;;;6.10;1.70;;;-0.60;83.30;;;-2.01;79.28;96906.34;4092219;34;20019;-86
2022/01/18 07:08:01;;;;;;;4.05;1.70;;;-0.50;83.40;;;-1.99;79.06;96904.28;4069727;34;20421;-87
2022/01/18 07:10:31;;;;;;;4.05;2.20;;;-0.50;83.40;;;-2.02;79.25;96905.47;4092182;34;20020;-87
2022/01/18 07:13:01;;;;;;;4.38;1.42;;;-0.50;83.40;;;-1.99;78.91;96915.03;4115749;34;20012;-86
2022/01/18 07:15:30;;;;;;;4.13;1.50;;;-0.50;83.40;;;-1.98;79.15;96930.13;4070219;34;20288;-87
2022/01/18 07:17:59;;;;;;;3.78;1.33;;;-0.50;83.30;;;-1.98;79.47;96918.56;4070775;34;20286;-87
2022/01/18 07:20:28;;;;;;;4.47;2.35;;;-0.50;83.30;;;-1.97;79.12;96931.78;4117562;33;20653;-86
2022/01/18 07:22:57;;;;;;;5.20;1.75;;;-0.50;83.20;;;-1.98;79.35;96940.84;4093390;34;20035;-86
2022/01/18 07:25:26;;;;;;;4.32;1.63;;;-0.50;83.20;;;-1.97;78.93;96947.88;4091866;34;20015;-86
2022/01/18 07:27:55;;;;;;;4.55;1.98;;;-0.50;83.10;;;-1.96;78.97;96951.44;4093057;34;20298;-86
2022/01/18 07:30:25;;;;;;;6.75;2.05;;;-0.50;83.10;;;-1.96;79.04;96946.88;4090242;34;20008;-86
2022/01/18 07:32:54;;;;;;;3.97;1.80;;;-0.50;83.30;;;-1.97;79.10;96933.66;4067526;34;20300;-86
2022/01/18 07:35:25;;;;;;;4.78;1.60;;;-0.50;83.10;;;-1.95;79.32;96934.31;4063299;34;20308;-85
2022/01/18 07:37:56;;;;;;;5.45;2.08;;;-0.50;83.10;;;-1.96;79.03;96938.84;4082465;34;20278;-87
2022/01/18 07:40:25;;;;;;;5.57;2.08;;;-0.50;83.20;;;-1.96;79.18;96933.47;4060811;34;20031;-87
2022/01/18 07:42:54;;;;;;;5.03;1.67;;;-0.50;83.10;;;-1.95;79.22;96935.16;4083444;34;20353;-87
2022/01/18 07:45:24;;;;;;;5.03;1.88;;;-0.50;83.20;;;-1.94;79.07;96944.03;4060346;34;20333;-87
2022/01/18 07:47:53;;;;;;;5.47;1.92;;;-0.50;83.20;;;-1.95;79.11;96948.56;4059458;34;20278;-87
2022/01/18 07:50:22;;;;;;;5.68;2.20;;;-0.50;83.10;;;-1.94;79.03;96936.00;4080234;34;20311;-87
2022/01/18 07:52:51;;;;;;;5.43;2.22;;;-0.50;83.10;;;-1.96;79.11;96941.50;4056599;34;20686;-87
2022/01/18 07:55:20;;;;;;;2.83;1.48;;;-0.50;82.90;;;-1.94;79.15;96931.44;4057792;34;20342;-87
2022/01/18 07:57:49;;;;;;;4.50;2.30;;;-0.50;82.80;;;-1.94;79.20;96942.19;4078477;34;20015;-87
2022/01/18 08:00:19;;;;;;;5.63;2.33;;;-0.50;82.90;;;-1.94;78.93;96947.56;4057173;34;20027;-87
2022/01/18 08:02:49;;;;;;;5.25;2.05;;;-0.50;82.80;;;-1.96;78.82;96949.56;4057253;34;20020;-87
2022/01/18 08:05:18;;;;;;;5.25;2.10;;;-0.50;82.90;;;-1.93;78.27;96964.47;4057478;34;20286;-87
2022/01/18 08:07:47;;;;;;;5.30;2.38;;;-0.50;82.60;;;-1.92;78.61;96955.41;4057520;34;20656;-86
2022/01/18 08:10:17;;;;;;;4.32;1.90;;;-0.50;82.80;;;-1.92;78.62;96964.31;4057282;34;20008;-87
2022/01/18 08:12:46;;;;;;;5.28;2.17;;;-0.50;82.80;;;-1.93;78.46;96965.31;4056930;34;20321;-87
2022/01/18 08:15:18;;;;;;;4.50;2.17;;;-0.50;82.80;;;-1.94;78.60;96969.00;4081642;34;20320;-86
2022/01/18 08:17:51;;;;;;;5.45;2.47;;;-0.50;82.60;;;-1.92;79.13;96980.41;4104183;34;20331;-87
2022/01/18 08:20:23;;;;;;;11.93;2.40;;;-0.40;82.70;;;-1.92;79.09;96976.88;4059474;34;20303;-87
2022/01/18 08:22:52;;;;;;;3.92;2.08;;;-0.40;82.80;;;-1.91;78.12;96987.47;4082860;34;20015;-87
2022/01/18 08:25:22;;;;;;;7.75;3.55;;;-0.40;82.60;;;-1.90;78.24;96997.19;4059352;34;20159;-86
2022/01/18 08:27:51;;;;;;;4.95;1.98;;;-0.40;82.50;;;-1.89;78.56;97014.13;4064235;34;20275;-86
2022/01/18 08:30:21;;;;;;;5.53;1.98;;;-0.40;82.50;;;-1.89;78.33;97012.28;4065823;34;20306;-86
2022/01/18 08:32:54;;;;;;;4.15;1.90;;;-0.40;82.40;;;-1.89;78.41;97020.34;4062275;34;20304;-86
2022/01/18 08:35:24;;;;;;;4.18;2.22;;;-0.40;82.30;;;-1.88;78.57;97031.91;4034839;34;20324;-86
2022/01/18 08:37:54;;;;;;;5.45;2.35;;;-0.40;82.30;;;-1.91;78.41;97027.72;4039795;34;20223;-87
2022/01/18 08:40:23;;;;;;;5.22;2.47;;;-0.40;82.30;;;-1.90;78.63;97028.53;4039602;34;20012;-87
2022/01/18 08:42:52;;;;;;;6.43;2.42;;;-0.40;82.40;;;-1.91;78.51;97029.53;4039504;34;20339;-87
2022/01/18 08:45:21;;;;;;;5.22;1.90;;;-0.40;82.40;;;-1.91;78.60;97041.13;4039856;34;20140;-87
2022/01/18 08:47:51;;;;;;;2.70;1.60;;;-0.40;82.40;;;-1.91;78.44;97049.19;4061986;34;20528;-87
2022/01/18 08:50:20;;;;;;;5.70;1.88;;;-0.40;82.20;;;-1.93;78.19;97051.19;4037679;34;20016;-87
2022/01/18 08:52:51;;;;;;;4.15;1.98;;;-0.40;82.30;;;-1.91;78.47;97053.69;4034341;34;20253;-87
2022/01/18 08:55:20;;;;;;;4.78;1.98;;;-0.50;82.40;;;-1.92;78.27;97055.56;4037110;34;20327;-87
2022/01/18 08:57:49;;;;;;;4.82;1.98;;;-0.40;82.30;;;-1.92;78.27;97063.59;4039587;34;20039;-86
2022/01/18 09:00:19;;;;;;;3.05;1.75;;;-0.40;82.40;;;-1.90;78.28;97076.84;4062236;34;20645;-87
2022/01/18 09:02:50;;;;;;;5.32;1.95;;;-0.50;82.40;;;-1.92;78.42;97068.97;4061847;34;20016;-87
2022/01/18 09:05:22;;;;;;;4.90;1.98;;;-0.50;82.30;;;-1.94;78.47;97062.94;4061973;34;20298;-87
2022/01/18 09:07:51;;;;;;;5.75;1.65;;;-0.50;82.40;;;-1.94;78.40;97054.88;4041076;34;20027;-86
2022/01/18 09:10:23;;;;;;;5.20;2.05;;;-0.40;82.40;;;-1.95;78.44;97058.56;4064293;34;20019;-87
2022/01/18 09:12:52;;;;;;;4.30;2.15;;;-0.50;82.40;;;-1.94;78.49;97073.66;4042029;34;20342;-87
2022/01/18 09:15:24;;;;;;;4.32;1.75;;;-0.50;82.40;;;-1.97;78.72;97063.28;4042255;34;20034;-87
2022/01/18 09:17:54;;;;;;;3.13;1.55;;;-0.50;82.50;;;-1.94;78.42;97076.34;4041162;34;20016;-87
2022/01/18 09:20:24;;;;;;;5.50;1.63;;;-0.50;82.40;;;-1.94;78.44;97076.34;4041588;34;20672;-87
2022/01/18 09:22:53;;;;;;;4.72;2.28;;;-0.50;82.60;;;-1.93;78.86;97077.19;4063147;34;20015;-86
2022/01/18 09:25:23;;;;;;;5.85;1.90;;;-0.50;82.60;;;-1.93;78.65;97080.72;4063192;34;20019;-87
2022/01/18 09:27:53;;;;;;;3.60;1.25;;;-0.50;82.50;;;-1.95;78.16;97063.94;4063315;34;20283;-87
2022/01/18 09:30:22;;;;;;;4.82;1.77;;;-0.50;82.50;;;-1.94;78.55;97075.53;4041222;34;20088;-87
2022/01/18 09:32:53;;;;;;;4.78;1.42;;;-0.50;82.50;;;-1.93;78.52;97072.66;4063845;34;20027;-87
2022/01/18 09:35:22;;;;;;;4.07;1.80;;;-0.50;82.60;;;-1.93;78.65;97055.72;4064048;34;20024;-86
2022/01/18 09:37:51;;;;;;;4.13;1.90;;;-0.50;82.60;;;-1.94;78.44;97054.88;4063765;34;20357;-86
2022/01/18 09:40:22;;;;;;;3.58;1.88;;;-0.50;82.60;;;-1.95;78.65;97041.66;4039564;34;20042;-86
2022/01/18 09:42:56;;;;;;;4.38;1.67;;;-0.50;82.70;;;-1.93;78.74;97047.66;4061667;34;20307;-85
2022/01/18 09:45:27;;;;;;;4.00;2.10;;;-0.50;82.80;;;-1.93;78.52;97035.09;4058223;34;20024;-85
2022/01/18 09:47:59;;;;;;;4.50;1.80;;;-0.50;82.60;;;-1.96;78.66;97030.06;4039272;34;20219;-85
2022/01/18 09:50:31;;;;;;;3.95;1.83;;;-0.50;82.60;;;-1.93;78.82;97035.09;4039004;34;20594;-85
2022/01/18 09:53:00;;;;;;;5.07;1.80;;;-0.50;82.50;;;-1.93;78.58;97032.41;4063111;34;20015;-85
2022/01/18 09:55:33;;;;;;;3.80;1.52;;;-0.50;82.60;;;-1.93;78.24;97040.47;4041305;34;20023;-85
2022/01/18 09:58:04;;;;;;;3.65;1.38;;;-0.50;82.60;;;-1.93;78.98;97034.25;4041210;34;20284;-85
2022/01/18 10:00:33;;;;;;;4.53;1.65;;;-0.50;82.60;;;-1.94;78.60;97044.16;4041608;34;19999;-86
2022/01/18 10:03:04;;;;;;;4.93;1.58;;;-0.50;82.50;;;-1.94;78.42;97032.59;4041935;34;20284;-85
2022/01/18 10:05:34;;;;;;;3.42;1.65;;;-0.50;82.40;;;-1.96;78.58;97024.69;4043663;34;20297;-87
2022/01/18 10:08:06;;;;;;;5.72;1.70;;;-0.50;82.40;;;-1.92;78.63;97027.88;4043466;34;20301;-87
2022/01/18 10:10:44;;;;;;;4.30;1.80;;;-0.50;82.40;;;-1.91;78.36;97034.91;4064185;34;20022;-87
2022/01/18 10:13:19;;;;;;;4.47;2.00;;;-0.50;82.40;;;-1.91;78.46;97032.22;4043537;34;20243;-86
2022/01/18 10:16:09;;;;;;;3.60;1.80;;;-0.40;82.40;;;-1.90;78.48;97029.41;4044138;34;20005;-87
2022/01/18 10:18:46;;;;;;;5.20;2.00;;;-0.40;82.10;;;-1.92;78.06;97026.03;4089016;34;20012;-86
2022/01/18 10:21:28;;;;;;;5.53;1.88;;;-0.40;82.20;;;-1.90;78.53;97029.41;4042295;34;20296;-86
2022/01/18 10:24:16;;;;;;;4.70;2.42;;;-0.40;82.30;;;-1.91;77.96;97025.03;4041596;34;20220;-86
2022/01/18 10:26:47;;;;;;;3.67;1.67;;;-0.40;82.10;;;-1.89;78.40;97022.16;4062825;34;20327;-86
2022/01/18 10:29:17;;;;;;;5.03;2.63;;;-0.40;82.10;;;-1.89;78.62;97023.03;4041094;34;20027;-86
2022/01/18 10:31:57;;;;;;;5.13;2.35;;;-0.40;82.20;;;-1.90;77.72;97031.22;4040710;34;19996;-86
2022/01/18 10:34:41;;;;;;;5.95;2.40;;;-0.40;82.10;;;-1.89;78.27;97041.81;4040752;34;20224;-86
2022/01/18 10:37:13;;;;;;;3.88;1.95;;;-0.40;82.10;;;-1.89;78.15;97028.38;4061512;34;20289;-86
2022/01/18 10:39:44;;;;;;;3.70;1.85;;;-0.40;82.10;;;-1.90;78.35;97018.66;4039762;34;20019;-86
2022/01/18 10:42:19;;;;;;;5.38;2.00;;;-0.40;82.20;;;-1.89;78.50;97020.34;4040813;34;20028;-87
2022/01/18 10:44:49;;;;;;;3.63;2.03;;;-0.40;82.10;;;-1.89;77.96;97017.66;4062712;34;20020;-86
2022/01/18 10:47:18;;;;;;;4.70;2.05;;;-0.40;82.30;;;-1.88;77.91;97022.00;4085422;34;20290;-87
2022/01/18 10:49:48;;;;;;;4.72;2.35;;;-0.40;82.00;;;-1.88;78.06;97023.84;4040477;34;20004;-87
2022/01/18 10:52:21;;;;;;;4.80;1.98;;;-0.40;81.80;;;-1.87;78.13;97023.66;4062350;34;20288;-87
2022/01/18 10:54:52;;;;;;;5.90;2.25;;;-0.40;82.00;;;-1.86;78.17;97036.06;4039964;34;20636;-86
2022/01/18 10:57:23;;;;;;;3.80;2.28;;;-0.40;81.90;;;-1.89;78.12;97024.84;4061893;34;20306;-86
2022/01/18 10:59:57;;;;;;;5.18;1.88;;;-0.40;82.10;;;-1.89;78.17;97020.34;4041402;34;20012;-87
2022/01/18 11:02:27;;;;;;;7.47;2.35;;;-0.40;81.80;;;-1.90;77.68;97024.03;4042602;34;20288;-86
2022/01/18 11:04:58;;;;;;;5.00;2.38;;;-0.40;81.80;;;-1.88;77.83;97015.78;4042950;34;20312;-87
2022/01/18 11:07:29;;;;;;;5.80;1.98;;;-0.40;81.80;;;-1.87;78.49;97039.75;4064247;34;20630;-86
2022/01/18 11:10:05;;;;;;;5.15;2.72;;;-0.40;82.10;;;-1.87;78.49;97039.75;4040489;34;20092;-87
2022/01/18 11:12:46;;;;;;;5.88;2.08;;;-0.40;82.10;;;-1.89;78.23;97035.59;4062511;34;20008;-87
2022/01/18 11:15:19;;;;;;;4.25;2.00;;;-0.40;81.90;;;-1.91;77.91;97032.22;4042779;34;19996;-86
2022/01/18 11:17:56;;;;;;;5.20;2.38;;;-0.40;81.90;;;-1.89;77.92;97041.81;4064987;34;20315;-87
2022/01/18 11:20:30;;;;;;;4.93;2.25;;;-0.40;81.90;;;-1.91;77.70;97032.22;4041447;34;20680;-87
2022/01/18 11:22:59;;;;;;;4.35;1.90;;;-0.40;82.00;;;-1.90;78.23;97040.13;4040446;34;20024;-87
2022/01/18 11:25:29;;;;;;;3.95;1.77;;;-0.40;82.10;;;-1.92;78.30;97058.25;4040206;34;20185;-87
2022/01/18 11:27:59;;;;;;;6.22;2.47;;;-0.40;82.30;;;-1.90;78.15;97060.75;4039462;34;20016;-87
2022/01/18 11:30:35;;;;;;;5.25;2.08;;;-0.50;82.20;;;-1.91;78.63;97069.81;4064132;34;20300;-87
2022/01/18 11:33:06;;;;;;;;;;;-0.40;82.30;;;-1.94;78.30;97054.06;4059918;34;20028;-87